Weather at Berrigan Airstrip

Public forecast

Using degrees Celsius for public forecast. Weather courtesy of forecast.io.

Closest aviation weather report (METAR) to Berrigan Airstrip

Report is more than 2 hours old.

Closest report is Wangaratta Airport, 50.0 nm (92.6 km) SSE. Retrieved 2022/05/18 02:52 UTC (4 hours ago):

YWGT 180252Z AUTO 28015KT 9999 // SCT036 SCT042 SCT049 15/05 Q1020

Closest aviation forecast (TAF) to Berrigan Airstrip

Forecast is more than 12 hours old.

Closest forecast is Wangaratta Airport, 50.0 nm (92.6 km) SSE. Retrieved 2022/05/11 20:03 UTC (6 days ago):

TAF TAF YWGT 111803Z 1120/1208 16005KT 9999 -RA BKN040 FM120200 12005KT 9999 -RA BKN025 TEMPO 1120/1208 4000 RA SCT015 BKN020